Time;durP1;ratioP1;P1;durP2;ratioP2;P2;SDS_P1;SDS_P2;PMS_P1;PMS_P2;Temp;Humidity;BMP_temperature;BMP_pressure;BME280_temperature;BME280_humidity;BME280_pressure;Samples;Min_cycle;Max_cycle;Signal;HPM_P1;HPM_P2
2021/08/28 00:02:23;;;;;;;10.30;4.03;;;;;;;13.78;100.00;147190.03;5054388;28;20024;-66
2021/08/28 00:04:50;;;;;;;9.50;4.00;;;;;;;13.78;100.00;147188.75;5046514;28;20025;-66
2021/08/28 00:07:16;;;;;;;11.07;4.27;;;;;;;13.82;100.00;147198.94;5055070;28;20040;-66
2021/08/28 00:09:41;;;;;;;8.60;3.90;;;;;;;13.84;100.00;147544.97;5041793;28;20434;-66
2021/08/28 00:12:07;;;;;;;8.90;4.03;;;;;;;13.85;100.00;147205.25;5056308;28;20342;-66
2021/08/28 00:14:32;;;;;;;10.60;4.03;;;;;;;13.88;100.00;147555.09;5055686;28;20047;-66
2021/08/28 00:16:58;;;;;;;10.40;4.13;;;;;;;13.95;100.00;147572.88;5052019;28;20033;-66
2021/08/28 00:19:23;;;;;;;13.17;4.37;;;;;;;13.95;100.00;147572.88;5052315;28;20029;-66
2021/08/28 00:21:49;;;;;;;12.03;4.53;;;;;;;13.94;100.00;147229.31;5056755;28;20038;-66
2021/08/28 00:24:14;;;;;;;9.53;4.13;;;;;;;13.95;100.00;147230.59;5056329;28;20464;-66
2021/08/28 00:26:40;;;;;;;9.93;4.37;;;;;;;13.94;100.00;147229.31;5056983;28;20025;-66
2021/08/28 00:29:06;;;;;;;9.93;4.37;;;;;;;13.98;100.00;147238.19;5049168;28;20036;-66
2021/08/28 00:31:31;;;;;;;10.20;4.30;;;;;;;14.00;100.00;147243.25;5054293;28;20154;-66
2021/08/28 00:33:57;;;;;;;9.87;3.80;;;;;;;13.98;100.00;147239.44;5050651;28;20028;-66
2021/08/28 00:36:22;;;;;;;9.07;4.17;;;;;;;14.01;100.00;147247.03;5054115;28;20595;-66
2021/08/28 00:38:48;;;;;;;9.47;3.90;;;;;;;14.00;100.00;147243.25;5048438;28;20634;-66
2021/08/28 00:41:14;;;;;;;9.33;4.40;;;;;;;14.01;100.00;147245.78;5046241;28;20044;-66
2021/08/28 00:43:40;;;;;;;12.50;3.93;;;;;;;14.02;100.00;147248.28;5052643;28;20176;-66
2021/08/28 00:46:05;;;;;;;10.10;4.50;;;;;;;14.04;100.00;147936.81;5053812;28;20037;-66
2021/08/28 00:48:31;;;;;;;12.13;4.10;;;;;;;14.06;100.00;148283.13;5048890;28;20111;-66
2021/08/28 00:50:56;;;;;;;12.40;4.63;;;;;;;14.07;100.00;148968.09;5051911;28;20059;-66
2021/08/28 00:53:22;;;;;;;12.27;4.93;;;;;;;13.99;100.00;148606.41;5052403;28;20497;-66
2021/08/28 00:55:50;;;;;;;10.40;4.40;;;;;;;14.01;100.00;148611.50;5052612;28;20053;-66
2021/08/28 00:58:17;;;;;;;10.53;4.23;;;;;;;13.97;100.00;148601.28;5051422;28;20024;-66
2021/08/28 01:00:48;;;;;;;13.47;5.07;;;;;;;14.00;100.00;149290.06;5047474;28;20025;-66
2021/08/28 01:03:19;;;;;;;12.73;4.23;;;;;;;13.97;100.00;149624.91;5050905;28;20107;-66
2021/08/28 01:06:13;;;;;;;14.33;4.90;;;;;;;13.97;100.00;149966.19;5045476;28;20583;-66
2021/08/28 01:09:05;;;;;;;10.77;4.30;;;;;;;13.98;100.00;150310.06;5049830;28;20117;-66
2021/08/28 01:11:40;;;;;;;12.73;4.70;;;;;;;14.02;100.00;150661.75;5053519;28;20493;-66
2021/08/28 01:14:13;;;;;;;15.63;5.30;;;;;;;14.07;100.00;151014.88;5049225;28;20020;-66
2021/08/28 01:16:45;;;;;;;14.67;4.80;;;;;;;14.10;100.00;151021.38;5048069;28;20103;-66
2021/08/28 01:19:22;;;;;;;11.75;4.65;;;;;;;14.13;100.00;151029.16;5057568;28;20496;-66
2021/08/28 01:21:48;;;;;;;16.00;5.67;;;;;;;14.18;100.00;151044.84;5049698;28;20024;-66
2021/08/28 01:24:15;;;;;;;15.43;4.97;;;;;;;14.20;100.00;151051.31;5056596;28;20178;-67
2021/08/28 01:27:03;;;;;;;16.43;5.07;;;;;;;14.20;100.00;151050.00;5057142;28;20399;-67
2021/08/28 01:29:33;;;;;;;17.63;5.40;;;;;;;14.23;100.00;151057.78;5048725;28;20127;-67
2021/08/28 01:32:01;;;;;;;14.50;5.53;;;;;;;14.19;100.00;151047.44;5044324;28;20040;-66
2021/08/28 01:34:28;;;;;;;22.00;5.80;;;;;;;14.24;100.00;151060.41;5048403;28;20111;-67
2021/08/28 01:36:55;;;;;;;11.70;4.60;;;;;;;14.21;100.00;151052.63;5055680;28;20028;-66
2021/08/28 01:39:22;;;;;;;14.47;5.40;;;;;;;14.23;100.00;151057.78;5056927;28;20020;-66
2021/08/28 01:41:51;;;;;;;12.47;5.27;;;;;;;14.25;100.00;151063.00;5051369;28;20039;-66
2021/08/28 01:44:17;;;;;;;15.77;5.13;;;;;;;14.24;100.00;151060.41;5048260;28;20433;-67
2021/08/28 01:46:43;;;;;;;12.93;4.93;;;;;;;14.17;100.00;151042.19;5052639;28;20103;-67
2021/08/28 01:49:10;;;;;;;13.63;4.93;;;;;;;14.21;100.00;151052.63;5055868;28;20111;-67
2021/08/28 01:51:38;;;;;;;10.87;4.73;;;;;;;14.21;100.00;151052.63;5053615;28;20390;-67
2021/08/28 01:54:04;;;;;;;11.57;4.47;;;;;;;14.23;100.00;151059.09;5059434;28;20020;-67
2021/08/28 01:56:30;;;;;;;13.67;4.40;;;;;;;14.23;100.00;151057.78;5064956;28;20041;-67
2021/08/28 01:58:57;;;;;;;13.47;4.50;;;;;;;14.22;100.00;151055.22;5059902;28;20024;-67
2021/08/28 02:01:23;;;;;;;11.33;5.07;;;;;;;14.23;100.00;151059.09;5061806;28;20021;-67
2021/08/28 02:03:49;;;;;;;11.67;4.53;;;;;;;14.23;100.00;151059.09;5062344;28;20155;-67
2021/08/28 02:06:26;;;;;;;11.00;4.17;;;;;;;14.27;100.00;151068.19;5060818;28;20036;-67
2021/08/28 02:09:04;;;;;;;11.03;4.80;;;;;;;14.25;100.00;151063.00;5051729;28;20024;-66
2021/08/28 02:11:38;;;;;;;11.07;4.60;;;;;;;14.27;100.00;151068.19;5063261;28;20036;-66
2021/08/28 02:14:13;;;;;;;12.37;4.63;;;;;;;14.26;100.00;151065.59;5062983;28;20028;-66
2021/08/28 02:16:42;;;;;;;16.83;4.57;;;;;;;14.25;100.00;151064.28;5060076;28;20019;-67
2021/08/28 02:19:31;;;;;;;19.70;5.00;;;;;;;14.26;100.00;151065.59;5060686;28;20038;-66
2021/08/28 02:21:59;;;;;;;11.93;4.83;;;;;;;14.29;100.00;151073.38;5055483;28;20020;-67
2021/08/28 02:24:34;;;;;;;12.33;4.87;;;;;;;14.26;100.00;151065.59;5060872;28;20408;-66
2021/08/28 02:27:26;;;;;;;13.67;5.20;;;;;;;14.35;100.00;151090.28;5063782;28;20028;-67
2021/08/28 02:30:18;;;;;;;14.50;4.93;;;;;;;14.35;100.00;151088.97;5062932;28;20032;-67
2021/08/28 02:32:48;;;;;;;14.07;4.97;;;;;;;14.38;100.00;151096.75;5064164;28;20094;-67
2021/08/28 02:35:14;;;;;;;13.33;5.00;;;;;;;14.40;100.00;151101.94;5055814;28;20464;-68
2021/08/28 02:37:41;;;;;;;13.17;4.80;;;;;;;14.37;100.00;151095.47;5055002;28;20024;-68
2021/08/28 02:40:10;;;;;;;13.97;5.00;;;;;;;14.40;100.00;151101.94;5059899;28;20039;-67
2021/08/28 02:42:38;;;;;;;14.47;4.90;;;;;;;14.45;100.00;151115.03;5060704;28;20086;-67
2021/08/28 02:45:06;;;;;;;11.63;4.57;;;;;;;14.43;100.00;151109.78;5060696;28;20028;-68
2021/08/28 02:47:32;;;;;;;9.77;4.53;;;;;;;14.45;100.00;151115.03;5051965;28;20028;-68
2021/08/28 02:49:59;;;;;;;9.47;4.33;;;;;;;14.45;100.00;151113.72;5056943;28;20025;-68
2021/08/28 02:52:27;;;;;;;11.70;4.60;;;;;;;14.45;100.00;151113.72;5059911;28;20063;-67
2021/08/28 02:54:57;;;;;;;17.00;4.77;;;;;;;14.50;100.00;151126.69;5057332;28;20074;-68
2021/08/28 02:57:25;;;;;;;12.90;4.67;;;;;;;14.48;100.00;151122.81;5058769;28;20120;-67
2021/08/28 02:59:51;;;;;;;13.60;4.87;;;;;;;14.47;100.00;151120.22;5050989;28;20465;-67
2021/08/28 03:02:18;;;;;;;12.53;4.80;;;;;;;14.43;100.00;151109.78;5061407;28;20035;-67
2021/08/28 03:04:44;;;;;;;10.43;4.77;;;;;;;14.43;100.00;151109.78;5055428;28;20037;-67
2021/08/28 03:07:11;;;;;;;12.93;4.80;;;;;;;14.44;100.00;151112.44;5057081;28;20103;-67
2021/08/28 03:09:38;;;;;;;12.87;4.97;;;;;;;14.49;100.00;151125.41;5061207;28;20622;-68
2021/08/28 03:12:04;;;;;;;14.57;4.37;;;;;;;14.49;100.00;151125.41;5052535;28;20032;-68
2021/08/28 03:14:30;;;;;;;12.90;5.07;;;;;;;14.50;100.00;151128.00;5057458;28;20393;-68
2021/08/28 03:16:57;;;;;;;12.73;5.10;;;;;;;14.46;100.00;151117.63;5055275;28;20017;-68
2021/08/28 03:19:25;;;;;;;12.93;5.70;;;;;;;14.42;100.00;151105.91;5055731;28;20493;-68
2021/08/28 03:21:53;;;;;;;12.53;5.40;;;;;;;14.40;100.00;151101.94;5057763;28;20119;-68
2021/08/28 03:24:27;;;;;;;10.70;5.37;;;;;;;14.37;100.00;151095.47;5061220;28;20063;-67
2021/08/28 03:26:55;;;;;;;13.43;5.20;;;;;;;14.37;100.00;151091.50;5055096;28;20025;-68
2021/08/28 03:29:21;;;;;;;12.53;5.37;;;;;;;14.40;100.00;151100.66;5062871;28;20045;-67
2021/08/28 03:31:49;;;;;;;16.17;5.40;;;;;;;14.41;100.00;151104.56;5055460;28;20037;-67
2021/08/28 03:34:15;;;;;;;13.63;5.53;;;;;;;14.42;100.00;151104.53;5060159;28;20385;-68
2021/08/28 03:36:42;;;;;;;17.80;5.53;;;;;;;14.43;100.00;151109.78;5052905;28;20344;-68
2021/08/28 03:39:08;;;;;;;14.10;5.50;;;;;;;14.41;100.00;151101.88;5060945;28;20070;-67
2021/08/28 03:41:33;;;;;;;13.77;5.23;;;;;;;14.41;100.00;151101.88;5050293;28;20074;-68
2021/08/28 03:43:59;;;;;;;14.67;5.50;;;;;;;14.36;100.00;151088.91;5058811;28;20436;-68
2021/08/28 03:46:25;;;;;;;13.20;5.50;;;;;;;14.31;100.00;151077.22;5055740;28;20028;-68
2021/08/28 03:48:51;;;;;;;13.33;6.20;;;;;;;14.30;100.00;151073.34;5051880;28;20089;-68
2021/08/28 03:51:16;;;;;;;15.13;5.13;;;;;;;14.27;100.00;151065.50;5056501;28;20044;-68
2021/08/28 03:53:42;;;;;;;13.23;5.33;;;;;;;14.20;100.00;150705.84;5062002;28;20020;-68
2021/08/28 03:56:07;;;;;;;13.20;5.10;;;;;;;14.19;100.00;151046.06;5056025;28;20048;-67
2021/08/28 03:58:34;;;;;;;12.03;5.30;;;;;;;14.12;100.00;150685.09;5051512;28;20683;-67
2021/08/28 04:00:59;;;;;;;12.40;5.10;;;;;;;14.10;100.00;150679.91;5054266;28;20033;-67
2021/08/28 04:03:25;;;;;;;16.87;5.47;;;;;;;14.10;100.00;151021.38;5060129;28;20034;-67
2021/08/28 04:05:50;;;;;;;13.70;5.50;;;;;;;14.07;100.00;150673.44;5056347;28;20058;-67
2021/08/28 04:08:16;;;;;;;12.80;5.90;;;;;;;14.10;100.00;151022.66;5061559;28;20029;-67
2021/08/28 04:10:41;;;;;;;15.07;5.60;;;;;;;14.11;100.00;151023.94;5052169;28;20055;-67
2021/08/28 04:13:07;;;;;;;16.63;6.13;;;;;;;14.14;100.00;151031.72;5049488;28;20024;-67
2021/08/28 04:15:32;;;;;;;12.27;5.03;;;;;;;14.14;100.00;151034.41;5061078;28;20561;-67
2021/08/28 04:17:58;;;;;;;16.03;6.00;;;;;;;14.22;100.00;151055.22;5054105;28;20025;-67
2021/08/28 04:20:23;;;;;;;14.07;5.53;;;;;;;14.21;100.00;151051.25;5055201;28;20565;-67
2021/08/28 04:22:49;;;;;;;15.67;6.10;;;;;;;14.22;100.00;151052.53;5049700;28;20077;-67
2021/08/28 04:25:15;;;;;;;15.00;5.60;;;;;;;14.28;100.00;151069.41;5057179;28;20748;-67
2021/08/28 04:27:40;;;;;;;15.03;6.17;;;;;;;14.32;100.00;151081.19;5058848;28;20735;-67
2021/08/28 04:30:07;;;;;;;16.60;5.80;;;;;;;14.31;100.00;151077.22;5060559;28;20036;-67
2021/08/28 04:32:33;;;;;;;14.77;5.87;;;;;;;14.34;100.00;151083.72;5060229;28;20081;-67
2021/08/28 04:34:59;;;;;;;12.63;5.53;;;;;;;14.31;100.00;151077.22;5058721;28;20028;-67
2021/08/28 04:37:24;;;;;;;11.67;5.80;;;;;;;14.28;100.00;150727.84;5050407;28;20033;-66
2021/08/28 04:39:50;;;;;;;13.67;5.63;;;;;;;14.32;100.00;150738.25;5050709;28;20085;-68
2021/08/28 04:42:15;;;;;;;18.13;6.67;;;;;;;14.32;100.00;150738.25;5060744;28;20040;-67
2021/08/28 04:44:41;;;;;;;13.50;5.40;;;;;;;14.36;100.00;151088.91;5055526;28;20044;-68
2021/08/28 04:47:06;;;;;;;11.37;5.60;;;;;;;14.34;100.00;150743.44;5060870;28;20048;-68
2021/08/28 04:49:31;;;;;;;16.90;6.40;;;;;;;14.31;100.00;150392.84;5059696;28;20028;-67
2021/08/28 04:51:58;;;;;;;12.03;5.70;;;;;;;14.33;100.00;150398.00;5049915;28;20421;-68
2021/08/28 04:54:24;;;;;;;12.43;5.50;;;;;;;14.38;100.00;150412.22;5056939;28;20036;-68
2021/08/28 04:56:49;;;;;;;12.03;5.87;;;;;;;14.37;100.00;150068.09;5054666;28;20047;-68
2021/08/28 04:59:15;;;;;;;14.33;5.77;;;;;;;14.43;100.00;150081.03;5058684;28;20082;-68
2021/08/28 05:01:41;;;;;;;15.83;5.73;;;;;;;14.47;100.00;150092.66;5049141;28;20029;-67
2021/08/28 05:04:07;;;;;;;13.57;6.00;;;;;;;14.54;100.00;149769.16;5061316;28;20197;-67
2021/08/28 05:06:35;;;;;;;13.93;6.73;;;;;;;14.49;100.00;148731.75;5059316;28;20033;-67
2021/08/28 05:09:02;;;;;;;12.53;6.00;;;;;;;14.58;100.00;148070.56;5055272;28;20036;-68
2021/08/28 05:11:30;;;;;;;13.53;5.93;;;;;;;14.57;100.00;147727.88;5051686;28;20032;-67
2021/08/28 05:13:56;;;;;;;13.40;6.17;;;;;;;14.62;100.00;148423.47;5052078;28;20039;-68
2021/08/28 05:16:21;;;;;;;12.70;6.07;;;;;;;14.61;100.00;148079.44;5061874;28;20493;-68
2021/08/28 05:18:47;;;;;;;13.07;6.17;;;;;;;14.61;100.00;148079.44;5061902;28;20071;-68
2021/08/28 05:21:12;;;;;;;14.50;6.10;;;;;;;14.61;100.00;148079.44;5064688;28;20627;-68
2021/08/28 05:23:39;;;;;;;12.30;5.87;;;;;;;14.67;100.00;148092.22;5054766;28;20028;-68
2021/08/28 05:26:04;;;;;;;13.83;5.73;;;;;;;14.78;100.00;149145.00;5062236;28;20039;-68
2021/08/28 05:28:30;;;;;;;13.10;5.90;;;;;;;14.74;100.00;148451.56;5064872;28;20032;-68
2021/08/28 05:30:55;;;;;;;15.47;6.10;;;;;;;14.79;100.00;148465.63;5057863;28;20170;-68
2021/08/28 05:33:21;;;;;;;11.93;5.90;;;;;;;14.79;100.00;148122.78;5052376;28;20075;-68
2021/08/28 05:35:46;;;;;;;15.13;5.80;;;;;;;14.86;100.00;147799.00;5060037;28;20607;-68
2021/08/28 05:38:12;;;;;;;10.80;5.60;;;;;;;14.84;100.00;146770.66;5057600;28;20036;-68
2021/08/28 05:40:37;;;;;;;13.20;5.57;;;;;;;14.87;100.00;146436.75;5063172;28;20108;-67
2021/08/28 05:43:03;;;;;;;11.30;5.67;;;;;;;14.88;100.00;145072.47;5059276;28;20218;-68
2021/08/28 05:45:28;;;;;;;11.80;6.20;;;;;;;15.08;100.00;145122.38;5054891;28;20112;-68
2021/08/28 05:47:54;;;;;;;10.00;5.03;;;;;;;15.03;100.00;143743.31;5055932;28;20580;-68
2021/08/28 05:50:19;;;;;;;12.33;5.17;;;;;;;15.01;100.00;142715.91;5058962;28;20024;-68
2021/08/28 05:52:46;;;;;;;10.57;4.77;;;;;;;14.96;100.00;142362.53;5056401;28;20037;-68
2021/08/28 05:55:13;;;;;;;11.90;4.83;;;;;;;14.95;100.00;141679.19;5062149;28;20039;-68
2021/08/28 05:57:39;;;;;;;10.57;4.50;;;;;;;14.91;100.00;140986.28;5062869;28;20033;-68
2021/08/28 06:00:06;;;;;;;10.90;4.80;;;;;;;14.94;100.00;140311.69;5062582;28;20040;-67
2021/08/28 06:02:32;;;;;;;13.33;4.73;;;;;;;14.88;100.00;139956.34;5061927;28;20120;-67
2021/08/28 06:04:57;;;;;;;11.10;4.80;;;;;;;14.96;100.00;139634.75;5059327;28;20679;-68
2021/08/28 06:07:23;;;;;;;13.60;5.40;;;;;;;14.98;100.00;139298.69;5056091;28;20044;-67
2021/08/28 06:09:48;;;;;;;9.70;4.50;;;;;;;15.10;100.00;138303.72;5064939;28;20119;-68
2021/08/28 06:12:14;;;;;;;8.10;4.33;;;;;;;15.18;100.00;137642.34;5060917;28;20028;-68
2021/08/28 06:14:39;;;;;;;7.77;4.30;;;;;;;15.19;100.00;137985.50;5064937;28;20035;-67
2021/08/28 06:17:05;;;;;;;8.70;4.33;;;;;;;15.11;100.00;136263.06;5057183;28;20103;-67
2021/08/28 06:19:30;;;;;;;9.10;4.77;;;;;;;15.05;100.00;137270.91;5062034;28;20044;-67
2021/08/28 06:21:57;;;;;;;8.97;4.43;;;;;;;15.10;100.00;138303.72;5057071;28;20055;-67
2021/08/28 06:24:22;;;;;;;10.77;4.80;;;;;;;15.06;100.00;139657.56;5061081;28;20488;-68
2021/08/28 06:26:47;;;;;;;9.27;4.70;;;;;;;15.07;100.00;140684.03;5060374;28;20041;-67
2021/08/28 06:29:13;;;;;;;10.17;4.40;;;;;;;15.16;100.00;140364.78;5060155;28;20036;-67
2021/08/28 06:31:38;;;;;;;8.43;4.50;;;;;;;15.22;100.00;140038.19;5059513;28;20032;-67
2021/08/28 06:34:04;;;;;;;9.20;4.80;;;;;;;15.24;100.00;137996.16;5064518;28;20068;-67
2021/08/28 06:36:30;;;;;;;9.43;4.40;;;;;;;15.34;100.00;137677.84;5064932;28;20476;-67
2021/08/28 06:38:55;;;;;;;9.20;4.37;;;;;;;15.55;100.00;138068.56;5064140;28;20128;-67
2021/08/28 06:41:21;;;;;;;9.70;4.50;;;;;;;15.70;100.00;136056.97;5064578;28;20086;-67
2021/08/28 06:43:46;;;;;;;9.13;4.53;;;;;;;15.86;100.00;131664.16;5064427;28;20067;-67
2021/08/28 06:46:12;;;;;;;11.13;4.43;;;;;;;16.10;100.00;130015.31;5050425;28;20040;-67
2021/08/28 06:48:37;;;;;;;7.67;4.00;;;;;;;16.35;100.00;130410.81;5062400;28;20129;-67
2021/08/28 06:51:03;;;;;;;8.17;4.03;;;;;;;16.42;100.00;118518.78;5048910;28;20104;-67
2021/08/28 06:53:28;;;;;;;7.53;3.73;;;;;;;16.44;100.00;119880.56;5059975;28;20040;-67
2021/08/28 06:55:54;;;;;;;7.53;4.10;;;;;;;16.33;100.00;117822.38;5064244;28;20067;-67
2021/08/28 06:58:19;;;;;;;8.53;4.00;;;;;;;16.21;100.00;118816.47;5057621;28;20025;-67
2021/08/28 07:00:45;;;;;;;8.37;4.00;;;;;;;16.09;100.00;119131.44;5056908;28;20669;-67
2021/08/28 07:03:10;;;;;;;7.13;3.73;;;;;;;16.30;100.00;120193.47;5063767;28;20091;-67
2021/08/28 07:05:36;;;;;;;6.80;3.60;;;;;;;16.44;100.00;114109.50;5062773;28;20512;-67
2021/08/28 07:08:01;;;;;;;7.10;4.00;;;;;;;16.78;100.00;104686.22;5062545;28;20036;-67
2021/08/28 07:10:27;;;;;;;8.73;3.70;;;;;;;17.05;100.00;103040.44;5061272;28;20762;-67
2021/08/28 07:12:52;;;;;;;5.90;3.00;;;;;;;16.90;100.00;93553.09;5063457;28;20619;-67
2021/08/28 07:15:18;;;;;;;5.77;3.20;;;;;;;16.74;100.00;95552.84;5063793;28;20103;-67
2021/08/28 07:17:43;;;;;;;8.77;4.00;;;;;;;16.67;100.00;99932.72;5058714;28;20039;-67
2021/08/28 07:20:10;;;;;;;6.93;3.33;;;;;;;16.69;100.00;108733.41;5061467;28;20044;-67
2021/08/28 07:22:36;;;;;;;6.23;3.50;;;;;;;16.68;100.00;96555.69;5063502;28;20024;-67
2021/08/28 07:25:02;;;;;;;6.97;3.50;;;;;;;16.84;100.00;102328.31;5062439;28;20543;-67
2021/08/28 07:27:27;;;;;;;7.37;3.70;;;;;;;16.86;100.00;90511.88;5051418;28;20059;-67
2021/08/28 07:29:53;;;;;;;7.93;3.80;;;;;;;16.71;100.00;89814.34;5060021;28;20043;-67
2021/08/28 07:32:19;;;;;;;9.80;3.77;;;;;;;16.56;100.00;94848.28;5063297;28;20032;-67
2021/08/28 07:34:44;;;;;;;8.87;3.93;;;;;;;16.46;100.00;97531.63;5060311;28;20024;-67
2021/08/28 07:37:10;;;;;;;8.97;3.93;;;;;;;16.49;100.00;92476.94;5047085;28;20029;-67
2021/08/28 07:39:36;;;;;;;8.20;4.03;;;;;;;16.54;100.00;97545.09;5055891;28;20036;-67
2021/08/28 07:42:02;;;;;;;9.50;3.80;;;;;;;16.56;100.00;90801.91;5054625;28;20081;-67
2021/08/28 07:44:28;;;;;;;8.50;3.87;;;;;;;16.59;100.00;87438.06;5063276;28;20079;-67
2021/08/28 07:46:54;;;;;;;10.10;4.47;;;;;;;16.47;100.00;85401.50;5062604;28;20060;-66
2021/08/28 07:49:20;;;;;;;8.33;3.93;;;;;;;16.52;100.00;94167.03;5062995;28;20060;-67
2021/08/28 07:51:46;;;;;;;8.63;4.67;;;;;;;16.65;100.00;85090.88;5063357;28;20458;-67
2021/08/28 07:54:11;;;;;;;10.63;5.20;;;;;;;16.75;100.00;66979.81;5063295;28;20033;-67
2021/08/28 07:56:37;;;;;;;11.27;4.33;;;;;;;16.99;100.00;67342.22;5062936;28;20048;-67
2021/08/28 07:59:02;;;;;;;9.67;4.63;;;;;;;17.21;100.00;66697.44;5062978;28;20028;-67
2021/08/28 08:01:28;;;;;;;10.57;5.10;;;;;;;17.41;100.00;63036.50;5062914;28;20550;-67
2021/08/28 08:03:54;;;;;;;8.57;4.27;;;;;;;17.65;100.00;42362.94;5063124;28;20505;-67
2021/08/28 08:06:20;;;;;;;9.57;4.90;;;;;;;17.80;100.00;27095.03;5062929;28;20020;-67
2021/08/28 08:08:45;;;;;;;10.20;4.87;;;;;;;17.99;100.00;-1611.47;5062660;28;20094;-67
2021/08/28 08:11:15;;;;;;;8.67;4.27;;;;;;;18.06;100.00;-8178.09;5059465;28;20191;-66
2021/08/28 08:13:41;;;;;;;9.83;5.10;;;;;;;18.37;100.00;-13815.94;5058851;28;20042;-66
2021/08/28 08:16:06;;;;;;;8.75;5.10;;;;;;;18.18;100.00;-9163.00;5049342;28;20032;-66
2021/08/28 08:18:32;;;;;;;9.73;4.93;;;;;;;17.98;100.00;-1282.84;5058488;28;20107;-66
2021/08/28 08:20:57;;;;;;;9.88;4.57;;;;;;;17.87;100.00;17831.22;5049704;28;20029;-66
2021/08/28 08:23:23;;;;;;;8.50;4.55;;;;;;;17.90;100.00;19154.47;5056448;28;20032;-66
2021/08/28 08:25:48;;;;;;;11.63;4.93;;;;;;;18.14;100.00;22804.41;5057682;28;20044;-66
2021/08/28 08:28:14;;;;;;;10.15;5.43;;;;;;;18.27;100.00;9587.09;5061065;28;20054;-66
2021/08/28 08:30:39;;;;;;;9.75;5.05;;;;;;;18.20;100.00;-3911.19;5061411;28;20028;-66
2021/08/28 08:33:05;;;;;;;10.38;4.80;;;;;;;17.85;100.00;-7192.69;5057199;28;20090;-66
2021/08/28 08:35:30;;;;;;;13.35;5.20;;;;;;;17.97;100.00;31415.56;5056753;28;20064;-66
2021/08/28 08:37:57;;;;;;;10.00;4.68;;;;;;;17.91;100.00;16510.56;5052894;28;20039;-66
2021/08/28 08:40:25;;;;;;;9.82;4.90;;;;;;;18.07;100.00;16846.56;5055023;28;20033;-66
2021/08/28 08:42:55;;;;;;;9.10;4.53;;;;;;;18.03;100.00;-19126.88;5053112;28;20032;-66
2021/08/28 08:45:23;;;;;;;9.52;4.70;;;;;;;18.03;100.00;-18761.66;5054589;28;20312;-66
2021/08/28 08:47:49;;;;;;;8.77;4.63;;;;;;;18.11;100.00;-14732.59;5056958;28;20682;-66
2021/08/28 08:50:16;;;;;;;9.73;4.85;;;;;;;17.97;100.00;-19632.75;5057332;28;20461;-66
2021/08/28 08:52:46;;;;;;;10.85;5.20;;;;;;;17.85;100.00;5295.13;5046188;28;20025;-66
2021/08/28 08:55:11;;;;;;;9.00;4.73;;;;;;;17.95;100.00;-9816.66;5049195;28;20040;-66
2021/08/28 08:57:37;;;;;;;7.90;4.00;;;;;;;17.75;100.00;13204.03;5060525;28;20024;-66
2021/08/28 09:00:03;;;;;;;10.70;4.10;;;;;;;17.74;100.00;40705.78;5054030;28;20117;-66
2021/08/28 09:02:30;;;;;;;8.55;4.20;;;;;;;17.70;100.00;1674.03;5051561;28;20071;-66
2021/08/28 09:04:55;;;;;;;9.03;3.80;;;;;;;18.23;100.00;-16054.50;5052942;28;20036;-66
2021/08/28 09:07:24;;;;;;;8.00;4.10;;;;;;;18.80;100.00;-19654.13;5054076;28;20040;-66
2021/08/28 09:09:50;;;;;;;6.40;3.22;;;;;;;18.97;100.00;-19658.41;5057349;28;20029;-66
2021/08/28 09:12:18;;;;;;;5.53;2.75;;;;;;;18.86;100.00;-19655.53;5056625;28;20032;-66
2021/08/28 09:14:44;;;;;;;6.47;2.70;;;;;;;19.43;100.00;-19670.13;5054876;28;20048;-66
2021/08/28 09:17:20;;;;;;;5.43;2.70;;;;;;;19.46;100.00;-19670.91;5062411;28;20481;-66
2021/08/28 09:19:47;;;;;;;6.07;2.80;;;;;;;19.20;100.00;-19664.28;5053466;28;20033;-66
2021/08/28 09:22:32;;;;;;;5.30;2.60;;;;;;;19.13;100.00;-19662.56;5061902;28;20039;-66
2021/08/28 09:25:23;;;;;;;5.93;2.22;;;;;;;19.44;100.00;-19670.53;5056031;28;20028;-66
2021/08/28 09:27:50;;;;;;;5.15;2.40;;;;;;;19.56;100.00;-19673.66;5048944;28;20047;-66
2021/08/28 09:30:43;;;;;;;11.10;2.78;;;;;;;19.58;100.00;-19674.16;5053600;28;20032;-66
2021/08/28 09:33:18;;;;;;;5.00;2.28;;;;;;;19.38;100.00;-19668.94;5047796;28;20051;-66
2021/08/28 09:35:48;;;;;;;6.28;2.45;;;;;;;19.30;100.00;-19666.88;5057167;28;20036;-66
2021/08/28 09:38:17;;;;;;;5.80;2.38;;;;;;;19.22;100.00;-19664.91;5047973;28;20092;-66
2021/08/28 09:40:46;;;;;;;4.00;1.92;;;;;;;19.01;100.00;-19659.59;5055470;28;20047;-66
2021/08/28 09:43:16;;;;;;;4.53;2.30;;;;;;;19.01;100.00;-19659.59;5054958;28;20048;-66
2021/08/28 09:45:43;;;;;;;5.78;2.40;;;;;;;18.85;100.00;-19655.28;5054262;28;20020;-66
2021/08/28 09:48:10;;;;;;;4.95;2.45;;;;;;;19.07;100.00;-19661.00;5052192;28;20184;-66
2021/08/28 09:50:48;;;;;;;5.07;2.53;;;;;;;18.99;100.00;-19658.94;5052378;28;20111;-66
2021/08/28 09:53:34;;;;;;;4.53;2.08;;;;;;;19.54;100.00;-19673.13;5043887;28;20086;-66
2021/08/28 09:56:02;;;;;;;5.32;2.17;;;;;;;20.21;100.00;-19690.16;5054481;28;20056;-66
2021/08/28 09:58:32;;;;;;;5.18;2.13;;;;;;;20.32;100.00;-19693.03;5050919;28;20036;-66
2021/08/28 10:01:03;;;;;;;5.53;1.98;;;;;;;20.81;100.00;-19705.50;5053302;28;20373;-66
2021/08/28 10:03:29;;;;;;;4.15;1.80;;;;;;;21.26;100.00;-19716.94;5048404;28;20099;-66
2021/08/28 10:05:56;;;;;;;3.67;1.70;;;;;;;21.11;100.00;-19713.16;5051973;28;20560;-65
2021/08/28 10:08:23;;;;;;;4.00;1.80;;;;;;;20.84;100.00;-19706.28;5056123;28;20028;-66
2021/08/28 10:10:50;;;;;;;4.40;2.10;;;;;;;20.42;100.00;-19695.63;5052532;28;20063;-66
2021/08/28 10:13:20;;;;;;;4.03;1.70;;;;;;;20.73;100.00;-19703.44;5056265;28;20031;-66
2021/08/28 10:15:46;;;;;;;5.32;1.92;;;;;;;20.63;100.00;-19700.97;5058270;28;20070;-66
2021/08/28 10:18:12;;;;;;;4.35;2.00;;;;;;;20.28;100.00;-19691.97;5054513;28;20033;-66
2021/08/28 10:20:40;;;;;;;4.72;1.92;;;;;;;19.95;100.00;-19683.41;5059502;28;20035;-66
2021/08/28 10:23:07;;;;;;;4.85;2.17;;;;;;;20.35;100.00;-19693.81;5052043;28;20211;-66
2021/08/28 10:25:36;;;;;;;4.60;1.83;;;;;;;20.83;100.00;-19706.03;5053144;28;20031;-66
2021/08/28 10:28:05;;;;;;;4.57;2.40;;;;;;;20.79;100.00;-19704.97;5060146;28;20251;-66
2021/08/28 10:30:32;;;;;;;4.57;2.25;;;;;;;20.93;100.00;-19708.50;5057785;28;20381;-66
2021/08/28 10:32:57;;;;;;;3.53;1.52;;;;;;;20.52;100.00;-19697.97;5054442;28;20098;-66
2021/08/28 10:35:23;;;;;;;5.10;1.75;;;;;;;20.02;100.00;-19685.34;5048421;28;20037;-66
2021/08/28 10:37:49;;;;;;;3.75;1.73;;;;;;;19.65;100.00;-19675.84;5053413;28;20293;-66
2021/08/28 10:40:21;;;;;;;2.47;1.05;;;;;;;19.77;100.00;-19678.84;5054709;28;20412;-66
2021/08/28 10:42:49;;;;;;;3.15;1.10;;;;;;;19.51;100.00;-19672.34;5051839;28;20029;-66
2021/08/28 10:45:15;;;;;;;5.45;1.10;;;;;;;19.08;100.00;-19661.16;5059049;28;20024;-66
2021/08/28 10:47:44;;;;;;;2.55;1.08;;;;;;;19.01;100.00;-19659.44;5054731;28;20520;-66
2021/08/28 10:50:12;;;;;;;2.00;1.00;;;;;;;19.09;100.00;-19661.53;5055163;28;20390;-65
2021/08/28 10:52:40;;;;;;;2.53;1.00;;;;;;;18.49;100.00;11902.84;5043854;28;20025;-66
2021/08/28 10:55:12;;;;;;;2.03;0.95;;;;;;;17.94;100.00;49385.09;5055386;28;20467;-66
2021/08/28 10:57:38;;;;;;;2.25;1.08;;;;;;;17.74;100.00;45700.25;5054517;28;20386;-66
2021/08/28 11:00:15;;;;;;;3.17;1.40;;;;;;;17.51;100.00;80838.31;5057095;28;20028;-66
2021/08/28 11:03:21;;;;;;;3.00;1.50;;;;;;;17.47;100.00;89593.47;5051563;28;20087;-66
2021/08/28 11:05:46;;;;;;;3.03;1.53;;;;;;;17.66;100.00;85911.03;5054670;28;20033;-66
2021/08/28 11:08:16;;;;;;;3.45;1.20;;;;;;;17.58;100.00;82867.53;5052191;28;20499;-66
2021/08/28 11:10:42;;;;;;;3.20;1.47;;;;;;;17.66;100.00;84899.81;5050010;28;20561;-66
2021/08/28 11:13:08;;;;;;;1.85;1.10;;;;;;;17.83;100.00;74154.56;5046478;28;20386;-66
2021/08/28 11:15:42;;;;;;;2.73;1.23;;;;;;;17.95;100.00;53058.09;5053758;28;20024;-66
2021/08/28 11:18:14;;;;;;;2.13;1.03;;;;;;;18.19;100.00;50407.72;5055309;28;20252;-66